createdAt,value
2023-01-17T00:02:27.138Z,6.55
2023-01-17T00:05:12.989Z,6.88
2023-01-17T00:07:58.600Z,6.15
2023-01-17T00:10:30.926Z,5.95
2023-01-17T00:13:03.543Z,5.82
2023-01-17T00:15:34.647Z,6.55
2023-01-17T00:18:01.698Z,6.80
2023-01-17T00:20:49.048Z,6.13
2023-01-17T00:23:43.102Z,6.25
2023-01-17T00:26:14.952Z,6.35
2023-01-17T00:28:43.105Z,5.65
2023-01-17T00:31:12.937Z,6.13
2023-01-17T00:33:42.874Z,5.68
2023-01-17T00:36:11.359Z,5.80
2023-01-17T00:38:39.563Z,6.25
2023-01-17T00:41:09.883Z,6.43
2023-01-17T00:43:55.973Z,6.45
2023-01-17T00:46:42.159Z,7.13
2023-01-17T00:49:27.786Z,7.60
2023-01-17T00:52:14.032Z,6.63
2023-01-17T00:54:59.899Z,7.25
2023-01-17T00:57:45.935Z,6.97
2023-01-17T01:00:32.138Z,6.82
2023-01-17T01:03:18.206Z,7.95
2023-01-17T01:06:03.867Z,7.45
2023-01-17T01:08:49.632Z,8.13
2023-01-17T01:11:38.786Z,8.13
2023-01-17T01:14:27.147Z,6.85
2023-01-17T01:17:13.197Z,7.57
2023-01-17T01:22:44.448Z,7.63
2023-01-17T01:25:30.799Z,7.00
2023-01-17T01:28:23.796Z,7.90
2023-01-17T01:31:09.748Z,8.18
2023-01-17T01:33:36.931Z,8.70
2023-01-17T01:36:07.493Z,7.25
2023-01-17T01:38:34.535Z,8.35
2023-01-17T01:41:01.969Z,8.07
2023-01-17T01:43:47.509Z,8.30
2023-01-17T01:46:28.961Z,8.15
2023-01-17T01:49:08.635Z,8.68
2023-01-17T01:51:42.672Z,8.02
2023-01-17T01:54:20.481Z,8.65
2023-01-17T01:56:52.925Z,8.73
2023-01-17T01:59:21.520Z,8.95
2023-01-17T02:01:51.574Z,9.43
2023-01-17T02:04:20.021Z,9.77
2023-01-17T02:06:53.666Z,10.20
2023-01-17T02:09:21.090Z,9.50
2023-01-17T02:11:49.763Z,10.18
2023-01-17T02:14:18.208Z,9.77
2023-01-17T02:16:48.905Z,10.13
2023-01-17T02:19:28.095Z,11.13
2023-01-17T02:22:07.579Z,9.98
2023-01-17T02:24:49.080Z,10.18
2023-01-17T02:27:26.986Z,9.98
2023-01-17T02:30:15.442Z,10.25
2023-01-17T02:33:04.080Z,10.80
2023-01-17T02:35:54.679Z,11.18
2023-01-17T02:38:31.678Z,10.70
2023-01-17T02:41:07.926Z,10.77
2023-01-17T02:43:37.507Z,10.80
2023-01-17T02:46:04.696Z,11.93
2023-01-17T02:48:36.472Z,11.48
2023-01-17T02:51:22.521Z,12.82
2023-01-17T02:56:44.663Z,12.90
2023-01-17T02:59:15.052Z,12.45
2023-01-17T03:01:57.284Z,13.05
2023-01-17T03:04:28.500Z,12.50
2023-01-17T03:07:01.416Z,13.20
2023-01-17T03:09:30.864Z,14.35
2023-01-17T03:11:59.352Z,12.80
2023-01-17T03:14:31.335Z,12.52
2023-01-17T03:17:01.014Z,12.60
2023-01-17T03:19:28.268Z,13.48
2023-01-17T03:21:57.873Z,12.30
2023-01-17T03:24:25.173Z,12.85
2023-01-17T03:26:56.948Z,13.10
2023-01-17T03:29:24.275Z,13.38
2023-01-17T03:31:51.284Z,12.95
2023-01-17T03:34:18.647Z,14.32
2023-01-17T03:36:45.632Z,13.52
2023-01-17T03:39:12.866Z,13.60
2023-01-17T03:41:39.915Z,13.68
2023-01-17T03:44:07.207Z,13.90
2023-01-17T03:46:34.229Z,12.82
2023-01-17T03:49:04.570Z,14.30
2023-01-17T03:51:31.617Z,13.00
2023-01-17T03:53:59.235Z,12.95
2023-01-17T03:56:28.741Z,13.95
2023-01-17T03:58:58.542Z,13.07
2023-01-17T04:01:27.971Z,13.07
2023-01-17T04:03:55.471Z,14.10
2023-01-17T04:06:24.711Z,13.52
2023-01-17T04:08:51.957Z,12.50
2023-01-17T04:11:18.989Z,13.82
2023-01-17T04:13:46.273Z,13.02
2023-01-17T04:16:17.730Z,13.05
2023-01-17T04:18:45.152Z,13.32
2023-01-17T04:21:12.205Z,13.25
2023-01-17T04:23:39.591Z,13.23
2023-01-17T04:26:06.962Z,12.82
2023-01-17T04:28:34.327Z,13.00
2023-01-17T04:31:01.368Z,12.73
2023-01-17T04:33:29.332Z,13.27
2023-01-17T04:35:56.779Z,12.30
2023-01-17T04:38:24.624Z,12.63
2023-01-17T04:40:54.429Z,12.82
2023-01-17T04:43:22.212Z,12.38
2023-01-17T04:45:55.113Z,12.77
2023-01-17T04:48:22.449Z,12.38
2023-01-17T04:50:49.645Z,11.48
2023-01-17T04:53:16.968Z,12.05
2023-01-17T04:55:47.171Z,12.13
2023-01-17T04:58:14.528Z,12.10
2023-01-17T05:00:41.489Z,12.10
2023-01-17T05:03:08.843Z,12.57
2023-01-17T05:05:35.849Z,12.52
2023-01-17T05:08:03.226Z,12.15
2023-01-17T05:10:30.267Z,11.57
2023-01-17T05:12:59.550Z,12.55
2023-01-17T05:15:27.524Z,12.73
2023-01-17T05:17:58.054Z,11.45
2023-01-17T05:20:26.888Z,12.18
2023-01-17T05:22:58.155Z,12.02
2023-01-17T05:25:27.731Z,11.98
2023-01-17T05:27:55.609Z,12.77
2023-01-17T05:30:24.850Z,12.07
2023-01-17T05:32:54.940Z,13.02
2023-01-17T05:35:25.125Z,12.45
2023-01-17T05:37:52.992Z,13.45
2023-01-17T05:40:25.274Z,12.75
2023-01-17T05:42:55.160Z,12.32
2023-01-17T05:45:23.925Z,12.68
2023-01-17T05:47:52.971Z,13.00
2023-01-17T05:50:26.033Z,12.75
2023-01-17T05:53:02.095Z,12.68
2023-01-17T05:57:57.436Z,12.07
2023-01-17T06:00:25.114Z,12.82
2023-01-17T06:02:57.265Z,12.70
2023-01-17T06:05:28.395Z,12.57
2023-01-17T06:07:56.635Z,13.68
2023-01-17T06:10:24.526Z,13.57
2023-01-17T06:13:05.012Z,14.13
2023-01-17T06:15:34.760Z,12.55
2023-01-17T06:18:13.379Z,14.80
2023-01-17T06:20:40.863Z,14.90
2023-01-17T06:23:11.806Z,15.35
2023-01-17T06:25:44.261Z,14.90
2023-01-17T06:28:13.721Z,16.08
2023-01-17T06:30:41.125Z,15.57
2023-01-17T06:33:08.485Z,15.25
2023-01-17T06:35:37.712Z,15.85
2023-01-17T06:38:05.222Z,16.20
2023-01-17T06:40:32.408Z,14.60
2023-01-17T06:43:01.797Z,14.93
2023-01-17T06:45:29.990Z,15.65
2023-01-17T06:47:59.310Z,15.23
2023-01-17T06:50:27.272Z,15.30
2023-01-17T06:53:03.014Z,13.55
2023-01-17T06:55:33.717Z,13.55
2023-01-17T06:58:03.151Z,15.00
2023-01-17T07:00:35.311Z,15.48
2023-01-17T07:03:02.888Z,14.23
2023-01-17T07:05:29.973Z,14.65
2023-01-17T07:07:58.055Z,13.13
2023-01-17T07:10:25.297Z,14.02
2023-01-17T07:13:00.757Z,13.40
2023-01-17T07:15:28.234Z,12.90
2023-01-17T07:17:55.491Z,13.95
2023-01-17T07:20:22.497Z,12.82
2023-01-17T07:22:49.835Z,13.27
2023-01-17T07:25:17.239Z,13.20
2023-01-17T07:27:45.718Z,13.85
2023-01-17T07:30:13.437Z,12.73
2023-01-17T07:32:40.808Z,13.60
2023-01-17T07:35:08.196Z,12.77
2023-01-17T07:37:35.556Z,12.95
2023-01-17T07:40:03.193Z,12.27
2023-01-17T07:42:30.511Z,13.05
2023-01-17T07:44:57.538Z,13.07
2023-01-17T07:47:24.937Z,14.13
2023-01-17T07:49:51.968Z,14.02
2023-01-17T07:52:19.253Z,13.38
2023-01-17T07:54:46.315Z,13.88
2023-01-17T07:57:15.699Z,15.80
2023-01-17T07:59:42.675Z,16.08
2023-01-17T08:02:23.607Z,13.93
2023-01-17T08:04:50.746Z,15.10
2023-01-17T08:07:18.014Z,14.18
2023-01-17T08:09:49.684Z,15.40
2023-01-17T08:12:17.195Z,14.63
2023-01-17T08:14:46.632Z,14.48
2023-01-17T08:17:18.185Z,14.93
2023-01-17T08:19:45.192Z,16.48
2023-01-17T08:22:12.780Z,16.33
2023-01-17T08:24:39.867Z,16.23
2023-01-17T08:27:08.999Z,16.05
2023-01-17T08:29:36.049Z,15.52
2023-01-17T08:32:04.123Z,17.30
2023-01-17T08:34:33.778Z,15.05
2023-01-17T08:37:01.116Z,15.40
2023-01-17T08:39:28.811Z,14.27
2023-01-17T08:41:57.451Z,14.52
2023-01-17T08:44:24.664Z,14.10
2023-01-17T08:46:54.576Z,13.43
2023-01-17T08:49:21.527Z,13.73
2023-01-17T08:51:48.821Z,13.50
2023-01-17T08:54:18.952Z,12.93
2023-01-17T08:56:49.154Z,13.70
2023-01-17T08:59:16.215Z,13.65
2023-01-17T09:01:46.038Z,12.77
2023-01-17T09:04:14.360Z,12.48
2023-01-17T09:06:45.309Z,11.32
2023-01-17T09:09:13.697Z,11.27
2023-01-17T09:11:41.075Z,10.75
2023-01-17T09:14:12.280Z,10.60
2023-01-17T09:16:39.678Z,10.68
2023-01-17T09:19:06.735Z,10.68
2023-01-17T09:21:34.090Z,11.32
2023-01-17T09:24:02.211Z,10.07
2023-01-17T09:26:30.472Z,10.45
2023-01-17T09:28:58.778Z,10.30
2023-01-17T09:31:28.855Z,10.50
2023-01-17T09:33:57.578Z,10.90
2023-01-17T09:36:28.914Z,11.48
2023-01-17T09:38:57.960Z,11.15
2023-01-17T09:41:27.955Z,11.75
2023-01-17T09:43:57.993Z,11.55
2023-01-17T09:46:41.328Z,12.20
2023-01-17T09:49:32.787Z,10.60
2023-01-17T09:52:00.695Z,11.30
2023-01-17T09:54:35.835Z,11.00
2023-01-17T09:57:26.529Z,11.40
2023-01-17T10:00:03.147Z,11.63
2023-01-17T10:02:45.864Z,10.77
2023-01-17T10:05:28.613Z,10.77
2023-01-17T10:07:58.746Z,9.32
2023-01-17T10:10:36.509Z,9.25
2023-01-17T10:13:33.182Z,9.70
2023-01-17T10:16:41.860Z,8.95
2023-01-17T10:19:09.175Z,9.45
2023-01-17T10:21:59.219Z,9.65
2023-01-17T10:24:54.516Z,9.05
2023-01-17T10:27:34.886Z,9.73
2023-01-17T10:30:11.195Z,7.95
2023-01-17T10:32:46.730Z,7.82
2023-01-17T10:35:27.041Z,7.57
2023-01-17T10:37:57.287Z,5.28
2023-01-17T10:40:30.873Z,5.85
2023-01-17T10:43:03.033Z,4.80
2023-01-17T10:45:36.203Z,5.35
2023-01-17T10:48:40.837Z,5.47
2023-01-17T10:51:22.027Z,4.90
2023-01-17T10:53:56.958Z,5.82
2023-01-17T10:56:28.257Z,4.60
2023-01-17T10:59:20.132Z,5.32
2023-01-17T11:01:49.697Z,4.88
2023-01-17T11:04:27.069Z,4.95
2023-01-17T11:07:29.584Z,4.10
2023-01-17T11:09:58.425Z,4.10
2023-01-17T11:12:45.928Z,3.40
2023-01-17T11:15:19.947Z,3.47
2023-01-17T11:18:00.621Z,3.67
2023-01-17T11:20:39.444Z,3.95
2023-01-17T11:23:17.514Z,3.63
2023-01-17T11:25:58.572Z,3.65
2023-01-17T11:28:32.899Z,3.72
2023-01-17T11:31:04.365Z,3.47
2023-01-17T11:33:55.686Z,3.20
2023-01-17T11:36:31.107Z,3.60
2023-01-17T11:39:07.316Z,2.88
2023-01-17T11:41:39.791Z,2.83
2023-01-17T11:44:27.947Z,2.80
2023-01-17T11:47:12.728Z,2.88
2023-01-17T11:49:42.309Z,3.15
2023-01-17T11:52:27.371Z,3.08
2023-01-17T11:54:55.997Z,3.55
2023-01-17T11:57:27.961Z,3.92
2023-01-17T12:00:15.479Z,3.75
2023-01-17T12:03:15.314Z,3.80
2023-01-17T12:06:13.610Z,3.25
2023-01-17T12:09:01.424Z,3.30
2023-01-17T12:12:11.358Z,3.53
2023-01-17T12:14:45.774Z,3.30
2023-01-17T12:17:39.081Z,3.55
2023-01-17T12:20:18.021Z,4.38
2023-01-17T12:22:51.399Z,4.07
2023-01-17T12:25:34.631Z,7.60
2023-01-17T12:28:34.268Z,7.95
2023-01-17T12:31:10.492Z,9.63
2023-01-17T12:34:15.707Z,8.63
2023-01-17T12:37:11.884Z,10.35
2023-01-17T12:39:43.401Z,8.82
2023-01-17T12:42:22.984Z,8.57
2023-01-17T12:44:57.897Z,8.10
2023-01-17T12:47:25.729Z,7.90
2023-01-17T12:50:17.030Z,6.40
2023-01-17T12:52:53.085Z,7.82
2023-01-17T12:55:44.354Z,7.10
2023-01-17T12:58:21.169Z,6.28
2023-01-17T13:00:56.647Z,6.40
2023-01-17T13:03:45.115Z,5.18
2023-01-17T13:06:25.059Z,4.75
2023-01-17T13:08:58.254Z,2.33
2023-01-17T13:11:38.330Z,1.60
2023-01-17T13:14:09.186Z,1.13
2023-01-17T13:16:57.935Z,1.20
2023-01-17T13:19:48.419Z,1.45
2023-01-17T13:22:18.346Z,1.52
2023-01-17T13:24:52.359Z,1.20
2023-01-17T13:27:27.903Z,1.55
2023-01-17T13:30:15.377Z,1.20
2023-01-17T13:33:21.637Z,1.40
2023-01-17T13:36:11.856Z,1.33
2023-01-17T13:38:57.746Z,1.50
2023-01-17T13:41:34.126Z,2.38
2023-01-17T13:44:21.327Z,1.80
2023-01-17T13:47:04.547Z,1.52
2023-01-17T13:49:34.652Z,1.52
2023-01-17T13:52:28.153Z,1.48
2023-01-17T13:55:01.423Z,1.50
2023-01-17T13:57:30.428Z,1.60
2023-01-17T14:00:00.122Z,1.60
2023-01-17T14:02:33.281Z,1.90
2023-01-17T14:05:17.564Z,2.60
2023-01-17T14:07:44.521Z,2.28
2023-01-17T14:10:32.446Z,2.10
2023-01-17T14:12:59.751Z,2.95
2023-01-17T14:15:28.806Z,3.38
2023-01-17T14:18:00.956Z,2.47
2023-01-17T14:20:34.324Z,1.85
2023-01-17T14:23:10.962Z,1.77
2023-01-17T14:25:40.459Z,1.92
2023-01-17T14:28:26.292Z,1.95
2023-01-17T14:30:56.107Z,1.58
2023-01-17T14:33:30.456Z,1.88
2023-01-17T14:36:01.478Z,2.05
2023-01-17T14:38:31.718Z,1.90
2023-01-17T14:41:01.256Z,2.10
2023-01-17T14:43:33.068Z,1.98
2023-01-17T14:46:04.309Z,2.13
2023-01-17T14:48:31.784Z,2.53
2023-01-17T14:51:00.358Z,2.50
2023-01-17T14:53:29.499Z,2.70
2023-01-17T14:56:18.428Z,2.63
2023-01-17T14:58:48.288Z,3.10
2023-01-17T15:01:20.584Z,3.00
2023-01-17T15:03:55.253Z,3.60
2023-01-17T15:06:33.201Z,3.60
2023-01-17T15:09:03.466Z,3.33
2023-01-17T15:11:36.181Z,3.10
2023-01-17T15:14:06.013Z,2.80
2023-01-17T15:16:36.335Z,4.25
2023-01-17T15:19:11.427Z,3.72
2023-01-17T15:21:42.690Z,4.05
2023-01-17T15:24:15.935Z,4.60
2023-01-17T15:26:44.059Z,3.85
2023-01-17T15:29:18.847Z,3.63
2023-01-17T15:31:50.496Z,3.37
2023-01-17T15:34:32.077Z,3.47
2023-01-17T15:37:08.484Z,3.15
2023-01-17T15:39:39.030Z,3.78
2023-01-17T15:42:22.920Z,3.30
2023-01-17T15:44:55.818Z,3.50
2023-01-17T15:47:32.818Z,3.30
2023-01-17T15:50:01.416Z,3.83
2023-01-17T15:52:29.804Z,3.17
2023-01-17T15:55:12.495Z,3.00
2023-01-17T15:57:40.270Z,3.78
2023-01-17T16:00:21.631Z,4.00
2023-01-17T16:02:57.904Z,3.15
2023-01-17T16:05:25.166Z,3.60
2023-01-17T16:07:56.475Z,4.28
2023-01-17T16:10:36.351Z,4.13
2023-01-17T16:13:05.828Z,3.83
2023-01-17T16:15:37.537Z,4.03
2023-01-17T16:18:09.986Z,4.05
2023-01-17T16:20:44.822Z,3.95
2023-01-17T16:23:12.505Z,3.92
2023-01-17T16:25:39.569Z,4.28
2023-01-17T16:28:07.167Z,4.50
2023-01-17T16:30:34.647Z,4.22
2023-01-17T16:33:03.720Z,4.60
2023-01-17T16:35:33.597Z,4.70
2023-01-17T16:38:07.153Z,4.78
2023-01-17T16:40:41.570Z,5.10
2023-01-17T16:43:12.202Z,4.18
2023-01-17T16:45:44.141Z,5.30
2023-01-17T16:48:12.641Z,4.53
2023-01-17T16:50:48.404Z,4.00
2023-01-17T16:53:21.522Z,4.07
2023-01-17T16:55:56.281Z,3.67
2023-01-17T16:58:24.016Z,3.78
2023-01-17T17:00:51.881Z,4.25
2023-01-17T17:03:21.336Z,3.28
2023-01-17T17:06:00.122Z,3.70
2023-01-17T17:08:29.857Z,4.03
2023-01-17T17:11:18.983Z,3.53
2023-01-17T17:13:49.054Z,3.45
2023-01-17T17:16:33.036Z,3.85
2023-01-17T17:19:03.787Z,3.55
2023-01-17T17:21:35.315Z,4.30
2023-01-17T17:24:03.850Z,4.50
2023-01-17T17:26:35.792Z,4.03
2023-01-17T17:29:05.533Z,3.92
2023-01-17T17:31:33.503Z,3.65
2023-01-17T17:34:05.145Z,4.15
2023-01-17T17:36:32.712Z,4.40
2023-01-17T17:39:02.308Z,4.95
2023-01-17T17:41:34.601Z,5.53
2023-01-17T17:44:05.241Z,5.47
2023-01-17T17:46:33.942Z,5.28
2023-01-17T17:49:02.230Z,5.32
2023-01-17T17:51:32.633Z,5.50
2023-01-17T17:54:05.449Z,5.38
2023-01-17T17:56:33.534Z,5.05
2023-01-17T17:59:02.430Z,5.45
2023-01-17T18:01:32.955Z,5.53
2023-01-17T18:04:04.612Z,4.55
2023-01-17T18:06:36.020Z,5.00
2023-01-17T18:09:05.819Z,4.90
2023-01-17T18:11:34.371Z,5.00
2023-01-17T18:14:03.727Z,4.75
2023-01-17T18:16:41.890Z,5.78
2023-01-17T18:19:16.172Z,4.63
2023-01-17T18:21:46.772Z,5.25
2023-01-17T18:24:20.080Z,4.60
2023-01-17T18:26:52.950Z,4.38
2023-01-17T18:29:22.732Z,4.80
2023-01-17T18:31:54.106Z,4.20
2023-01-17T18:34:24.455Z,4.90
2023-01-17T18:36:52.606Z,5.15
2023-01-17T18:39:24.859Z,5.38
2023-01-17T18:41:55.351Z,4.70
2023-01-17T18:44:23.781Z,4.43
2023-01-17T18:46:53.566Z,4.07
2023-01-17T18:49:23.271Z,4.35
2023-01-17T18:51:51.660Z,4.32
2023-01-17T18:54:23.836Z,4.38
2023-01-17T18:56:55.018Z,3.97
2023-01-17T18:59:23.628Z,4.18
2023-01-17T19:01:53.658Z,4.22
2023-01-17T19:04:22.168Z,4.10
2023-01-17T19:06:56.936Z,4.32
2023-01-17T19:09:25.163Z,4.00
2023-01-17T19:11:53.049Z,3.72
2023-01-17T19:14:21.269Z,3.97
2023-01-17T19:16:49.056Z,3.97
2023-01-17T19:19:22.493Z,3.72
2023-01-17T19:21:54.316Z,4.50
2023-01-17T19:24:22.765Z,4.13
2023-01-17T19:26:56.157Z,4.00
2023-01-17T19:29:24.470Z,4.00
2023-01-17T19:31:52.333Z,4.10
2023-01-17T19:34:21.847Z,4.32
2023-01-17T19:36:55.098Z,4.47
2023-01-17T19:39:26.001Z,4.45
2023-01-17T19:41:53.923Z,4.03
2023-01-17T19:44:22.190Z,5.40
2023-01-17T19:46:50.086Z,4.43
2023-01-17T19:49:24.535Z,4.32
2023-01-17T19:51:52.964Z,4.25
2023-01-17T19:54:21.047Z,4.95
2023-01-17T19:56:50.351Z,4.32
2023-01-17T19:59:21.052Z,4.30
2023-01-17T20:01:49.871Z,4.40
2023-01-17T20:04:25.513Z,4.07
2023-01-17T20:06:54.114Z,3.70
2023-01-17T20:09:24.949Z,3.90
2023-01-17T20:11:54.151Z,4.50
2023-01-17T20:14:22.949Z,4.20
2023-01-17T20:16:52.813Z,4.22
2023-01-17T20:19:21.353Z,4.28
2023-01-17T20:21:49.299Z,3.95
2023-01-17T20:24:17.346Z,4.75
2023-01-17T20:26:44.976Z,4.75
2023-01-17T20:29:15.425Z,4.15
2023-01-17T20:31:45.855Z,3.85
2023-01-17T20:34:19.811Z,4.72
2023-01-17T20:36:49.087Z,4.70
2023-01-17T20:39:16.796Z,5.53
2023-01-17T20:41:49.401Z,5.18
2023-01-17T20:44:19.689Z,6.55
2023-01-17T20:46:48.452Z,8.05
2023-01-17T20:49:19.093Z,7.40
2023-01-17T20:51:49.086Z,9.40
2023-01-17T20:54:18.751Z,8.82
2023-01-17T20:56:49.510Z,8.05
2023-01-17T20:59:20.813Z,8.30
2023-01-17T21:01:49.670Z,7.75
2023-01-17T21:04:20.157Z,7.80
2023-01-17T21:07:01.490Z,7.75
2023-01-17T21:09:32.430Z,6.85
2023-01-17T21:12:01.447Z,6.30
2023-01-17T21:14:47.045Z,7.25
2023-01-17T21:17:16.449Z,6.93
2023-01-17T21:19:45.012Z,7.03
2023-01-17T21:22:37.597Z,6.68
2023-01-17T21:25:05.954Z,7.60
2023-01-17T21:27:33.276Z,8.40
2023-01-17T21:30:00.976Z,8.30
2023-01-17T21:32:33.119Z,9.23
2023-01-17T21:35:03.461Z,9.73
2023-01-17T21:37:30.432Z,9.27
2023-01-17T21:39:57.776Z,10.18
2023-01-17T21:42:24.794Z,10.05
2023-01-17T21:44:52.211Z,11.15
2023-01-17T21:47:22.190Z,10.88
2023-01-17T21:49:51.899Z,11.48
2023-01-17T21:52:19.258Z,10.38
2023-01-17T21:55:07.204Z,8.50
2023-01-17T21:57:52.615Z,7.40
2023-01-17T22:00:20.021Z,5.57
2023-01-17T22:02:48.269Z,6.90
2023-01-17T22:05:19.737Z,6.70
2023-01-17T22:08:05.835Z,6.50
2023-01-17T22:10:33.311Z,6.22
2023-01-17T22:13:00.332Z,5.85
2023-01-17T22:15:27.671Z,6.90
2023-01-17T22:17:57.785Z,6.28
2023-01-17T22:20:25.630Z,5.97
2023-01-17T22:22:52.652Z,6.13
2023-01-17T22:25:26.311Z,6.75
2023-01-17T22:27:58.043Z,6.60
2023-01-17T22:30:25.594Z,6.82
2023-01-17T22:32:52.649Z,6.75
2023-01-17T22:35:20.039Z,7.25
2023-01-17T22:37:57.705Z,7.10
2023-01-17T22:40:32.998Z,6.85
2023-01-17T22:43:00.258Z,7.68
2023-01-17T22:45:29.086Z,8.25
2023-01-17T22:47:56.330Z,8.77
2023-01-17T22:50:23.959Z,7.88
2023-01-17T22:52:51.073Z,7.57
2023-01-17T22:55:18.428Z,7.68
2023-01-17T22:57:48.935Z,7.40
2023-01-17T23:00:16.684Z,7.65
2023-01-17T23:02:43.909Z,7.72
2023-01-17T23:05:11.498Z,7.88
2023-01-17T23:07:44.539Z,6.30
2023-01-17T23:10:33.953Z,6.50
2023-01-17T23:13:00.894Z,6.55
2023-01-17T23:15:46.891Z,4.70
2023-01-17T23:18:32.676Z,4.63
2023-01-17T23:20:59.941Z,3.95
2023-01-17T23:23:27.272Z,3.83
2023-01-17T23:25:59.726Z,3.60
2023-01-17T23:28:26.790Z,3.60
2023-01-17T23:30:54.041Z,3.85
2023-01-17T23:33:21.267Z,3.83
2023-01-17T23:35:51.033Z,3.95
2023-01-17T23:38:33.968Z,3.80
2023-01-17T23:41:25.129Z,3.45
2023-01-17T23:43:58.996Z,3.35
2023-01-17T23:46:27.186Z,3.17
2023-01-17T23:48:56.620Z,3.00
2023-01-17T23:51:23.897Z,3.63
2023-01-17T23:53:55.271Z,4.05
2023-01-17T23:56:24.877Z,3.78
2023-01-17T23:58:54.085Z,3.85
